Time;durP1;ratioP1;P1;durP2;ratioP2;P2;SDS_P1;SDS_P2;PMS_P1;PMS_P2;Temp;Humidity;BMP_temperature;BMP_pressure;BME280_temperature;BME280_humidity;BME280_pressure;Samples;Min_cycle;Max_cycle;Signal;HPM_P1;HPM_P2
2021/09/13 00:00:32;;;;;;;5.90;3.20;;;;;;;;;;10348854;28;20030;-83
2021/09/13 00:05:32;;;;;;;4.80;3.83;;;;;;;;;;10370033;28;20058;-84
2021/09/13 00:10:33;;;;;;;6.13;3.77;;;;;;;;;;10372611;28;20076;-82
2021/09/13 00:15:33;;;;;;;3.97;3.17;;;;;;;;;;10384088;28;20028;-84
2021/09/13 00:20:34;;;;;;;6.50;3.42;;;;;;;;;;10384280;28;20363;-86
2021/09/13 00:25:34;;;;;;;4.93;3.45;;;;;;;;;;10383070;28;20038;-85
2021/09/13 00:30:35;;;;;;;5.07;3.30;;;;;;;;;;10342840;28;20037;-86
2021/09/13 00:35:35;;;;;;;4.83;3.50;;;;;;;;;;10379225;28;20431;-87
2021/09/13 00:40:35;;;;;;;5.97;3.80;;;;;;;;;;10351347;28;20459;-86
2021/09/13 00:45:36;;;;;;;4.88;3.22;;;;;;;;;;10361741;28;20053;-85
2021/09/13 00:50:36;;;;;;;4.40;3.67;;;;;;;;;;10376215;28;20080;-86
2021/09/13 00:55:37;;;;;;;4.87;3.47;;;;;;;;;;10350917;28;20962;-85
2021/09/13 01:00:37;;;;;;;3.73;3.30;;;;;;;;;;10350673;28;20447;-86
2021/09/13 01:05:38;;;;;;;5.63;3.60;;;;;;;;;;10382470;28;20057;-86
2021/09/13 01:10:38;;;;;;;3.83;3.43;;;;;;;;;;10367813;28;20073;-84
2021/09/13 01:15:39;;;;;;;8.13;2.92;;;;;;;;;;10379849;28;20006;-84
2021/09/13 01:20:40;;;;;;;3.25;2.95;;;;;;;;;;10361297;28;20030;-82
2021/09/13 01:25:40;;;;;;;4.47;3.03;;;;;;;;;;10388336;28;20452;-85
2021/09/13 01:30:41;;;;;;;4.40;2.92;;;;;;;;;;10381044;28;20025;-84
2021/09/13 01:35:41;;;;;;;4.75;3.20;;;;;;;;;;10335761;28;20037;-83
2021/09/13 01:40:42;;;;;;;3.97;3.17;;;;;;;;;;10380262;28;20359;-83
2021/09/13 01:45:42;;;;;;;5.47;3.13;;;;;;;;;;10380531;28;20093;-83
2021/09/13 01:50:43;;;;;;;6.37;3.37;;;;;;;;;;10366098;28;20108;-85
2021/09/13 01:55:43;;;;;;;4.90;3.08;;;;;;;;;;10356850;28;20500;-87
2021/09/13 02:00:44;;;;;;;6.03;2.40;;;;;;;;;;10353379;28;20034;-87
2021/09/13 02:05:44;;;;;;;3.13;2.60;;;;;;;;;;10374260;28;20021;-86
2021/09/13 02:10:44;;;;;;;4.03;2.93;;;;;;;;;;10365441;28;20436;-84
2021/09/13 02:15:45;;;;;;;3.20;2.80;;;;;;;;;;10378597;28;20450;-85
2021/09/13 02:20:45;;;;;;;4.53;2.83;;;;;;;;;;10378777;28;20436;-85
2021/09/13 02:25:46;;;;;;;3.77;3.00;;;;;;;;;;10379765;28;20177;-87
2021/09/13 02:30:46;;;;;;;3.28;2.70;;;;;;;;;;10367528;28;20416;-86
2021/09/13 02:35:46;;;;;;;6.70;3.10;;;;;;;;;;10352841;28;20033;-86
2021/09/13 02:40:47;;;;;;;4.67;2.77;;;;;;;;;;10365316;28;20080;-86
2021/09/13 02:45:47;;;;;;;2.60;2.40;;;;;;;;;;10347709;28;20402;-85
2021/09/13 02:50:47;;;;;;;3.37;2.87;;;;;;;;;;10378291;28;20006;-85
2021/09/13 02:55:48;;;;;;;2.90;2.60;;;;;;;;;;10368038;28;20039;-83
2021/09/13 03:00:48;;;;;;;3.47;2.57;;;;;;;;;;10372924;28;20028;-82
2021/09/13 03:05:49;;;;;;;4.53;3.00;;;;;;;;;;10368555;28;20165;-83
2021/09/13 03:10:49;;;;;;;3.65;2.47;;;;;;;;;;10358129;28;20030;-82
2021/09/13 03:15:49;;;;;;;3.40;2.50;;;;;;;;;;10376887;28;20117;-83
2021/09/13 03:20:50;;;;;;;3.27;2.90;;;;;;;;;;10360704;28;20030;-83
2021/09/13 03:25:50;;;;;;;2.83;2.63;;;;;;;;;;10352526;28;20541;-84
2021/09/13 03:30:51;;;;;;;7.37;2.60;;;;;;;;;;10372216;28;20069;-83
2021/09/13 03:35:51;;;;;;;8.77;2.53;;;;;;;;;;10381386;28;20030;-84
2021/09/13 03:40:52;;;;;;;3.43;2.77;;;;;;;;;;10362887;28;20109;-83
2021/09/13 03:45:53;;;;;;;7.23;3.00;;;;;;;;;;10350302;28;20093;-84
2021/09/13 03:50:53;;;;;;;3.13;2.15;;;;;;;;;;10358438;28;20044;-84
2021/09/13 03:55:54;;;;;;;3.90;2.57;;;;;;;;;;10368962;28;20036;-83
2021/09/13 04:00:55;;;;;;;2.58;2.38;;;;;;;;;;10356392;28;20536;-84
2021/09/13 04:05:57;;;;;;;3.05;2.45;;;;;;;;;;10375140;28;20085;-84
2021/09/13 04:16:16;;;;;;;4.10;2.22;;;;;;;;;;10382997;28;20441;-86
2021/09/13 04:21:16;;;;;;;2.80;2.55;;;;;;;;;;10383345;28;20026;-83
2021/09/13 04:26:17;;;;;;;6.17;2.37;;;;;;;;;;10382494;28;20112;-84
2021/09/13 04:31:17;;;;;;;3.13;2.43;;;;;;;;;;10351935;28;20476;-83
2021/09/13 04:36:18;;;;;;;3.67;2.40;;;;;;;;;;10369023;28;20436;-85
2021/09/13 04:41:18;;;;;;;2.43;2.23;;;;;;;;;;10350665;28;20460;-85
2021/09/13 04:46:18;;;;;;;3.38;2.50;;;;;;;;;;10351987;28;20030;-83
2021/09/13 04:51:19;;;;;;;2.90;2.50;;;;;;;;;;10382482;28;20036;-84
2021/09/13 04:56:19;;;;;;;5.80;2.40;;;;;;;;;;10381045;28;20440;-84
2021/09/13 05:01:20;;;;;;;6.80;2.40;;;;;;;;;;10353257;28;20432;-84
2021/09/13 05:06:20;;;;;;;6.50;2.70;;;;;;;;;;10381253;28;20030;-82
2021/09/13 05:11:21;;;;;;;4.13;2.50;;;;;;;;;;10377266;28;20437;-83
2021/09/13 05:16:21;;;;;;;3.20;2.40;;;;;;;;;;10351781;28;20555;-80
2021/09/13 05:21:22;;;;;;;5.72;2.20;;;;;;;;;;10352701;28;20030;-82
2021/09/13 05:26:22;;;;;;;7.57;2.40;;;;;;;;;;10351997;28;20023;-80
2021/09/13 05:31:23;;;;;;;3.53;2.60;;;;;;;;;;10351030;28;20064;-81
2021/09/13 05:36:23;;;;;;;7.72;2.10;;;;;;;;;;10360322;28;20030;-81
2021/09/13 05:41:24;;;;;;;3.28;2.13;;;;;;;;;;10380346;28;20135;-84
2021/09/13 05:46:24;;;;;;;4.07;2.10;;;;;;;;;;10366263;28;20022;-82
2021/09/13 05:51:25;;;;;;;3.72;2.40;;;;;;;;;;10366080;28;20030;-84
2021/09/13 05:56:25;;;;;;;7.80;2.67;;;;;;;;;;10359891;28;20125;-86
2021/09/13 06:01:26;;;;;;;2.93;2.40;;;;;;;;;;10364957;28;20041;-84
2021/09/13 06:06:26;;;;;;;2.88;2.15;;;;;;;;;;10356626;28;20466;-85
2021/09/13 06:11:27;;;;;;;3.73;2.10;;;;;;;;;;10356120;28;20035;-85
2021/09/13 06:16:27;;;;;;;16.58;3.38;;;;;;;;;;10376036;28;20500;-82
2021/09/13 06:21:28;;;;;;;12.90;3.00;;;;;;;;;;10367634;28;20076;-83
2021/09/13 06:26:28;;;;;;;6.00;3.80;;;;;;;;;;10361744;28;20545;-82
2021/09/13 06:31:29;;;;;;;4.10;3.07;;;;;;;;;;10359610;28;20076;-82
2021/09/13 06:36:29;;;;;;;8.90;3.30;;;;;;;;;;10343071;28;20464;-82
2021/09/13 06:41:29;;;;;;;7.03;3.33;;;;;;;;;;10343377;28;20471;-81
2021/09/13 06:46:41;;;;;;;6.47;3.90;;;;;;;;;;10350801;28;20018;-81
2021/09/13 06:51:41;;;;;;;5.63;3.85;;;;;;;;;;10356822;28;20022;-82
2021/09/13 06:56:41;;;;;;;11.93;4.10;;;;;;;;;;10354844;28;20026;-82
2021/09/13 07:01:42;;;;;;;6.93;4.10;;;;;;;;;;10357474;28;20444;-81
2021/09/13 07:06:42;;;;;;;6.03;4.10;;;;;;;;;;10373636;28;20030;-83
2021/09/13 07:11:43;;;;;;;10.50;4.50;;;;;;;;;;10349099;28;20452;-81
2021/09/13 07:16:43;;;;;;;6.47;3.67;;;;;;;;;;10375319;28;20054;-81
2021/09/13 07:21:43;;;;;;;7.67;4.13;;;;;;;;;;10375524;28;20471;-84
2021/09/13 07:26:44;;;;;;;8.30;3.97;;;;;;;;;;10347277;28;20018;-84
2021/09/13 07:31:44;;;;;;;7.33;3.97;;;;;;;;;;10376288;28;20062;-85
2021/09/13 07:36:44;;;;;;;37.53;4.57;;;;;;;;;;10376184;28;20030;-82
2021/09/13 07:41:45;;;;;;;10.17;4.67;;;;;;;;;;10443241;23;20447;-79
2021/09/13 07:46:45;;;;;;;10.57;4.40;;;;;;;;;;10353226;28;20486;-85
2021/09/13 07:51:46;;;;;;;8.00;4.13;;;;;;;;;;10349258;28;20042;-84
2021/09/13 07:56:46;;;;;;;10.27;4.30;;;;;;;;;;10355321;28;20444;-84
2021/09/13 08:01:47;;;;;;;8.95;5.10;;;;;;;;;;10363264;28;20477;-83
2021/09/13 08:06:47;;;;;;;14.60;5.23;;;;;;;;;;10373760;28;20444;-83
2021/09/13 08:11:47;;;;;;;11.57;5.07;;;;;;;;;;10358953;28;20027;-82
2021/09/13 08:16:48;;;;;;;8.33;4.60;;;;;;;;;;10380251;28;20109;-84
2021/09/13 08:21:48;;;;;;;20.27;4.80;;;;;;;;;;10389308;28;20545;-85
2021/09/13 08:26:49;;;;;;;8.90;4.70;;;;;;;;;;10344209;28;20022;-84
2021/09/13 08:31:49;;;;;;;13.90;5.07;;;;;;;;;;10352290;28;20039;-84
2021/09/13 08:36:50;;;;;;;12.93;4.97;;;;;;;;;;10358510;28;20484;-82
2021/09/13 08:41:50;;;;;;;9.40;4.25;;;;;;;;;;10372908;28;20477;-83
2021/09/13 08:47:00;;;;;;;6.53;4.13;;;;;;;;;;10342808;28;20026;-85
2021/09/13 08:52:03;;;;;;;7.90;4.78;;;;;;;;;;10374562;28;20022;-84
2021/09/13 08:57:06;;;;;;;12.35;4.20;;;;;;;;;;10366743;28;20030;-85
2021/09/13 09:02:06;;;;;;;7.70;4.57;;;;;;;;;;10340799;28;20037;-84
2021/09/13 09:07:08;;;;;;;14.55;4.38;;;;;;;;;;10373516;28;20026;-83
2021/09/13 09:12:09;;;;;;;8.95;4.57;;;;;;;;;;10352601;28;20034;-82
2021/09/13 09:17:21;;;;;;;10.07;4.43;;;;;;;;;;10346819;28;20033;-85
2021/09/13 09:22:27;;;;;;;7.10;3.50;;;;;;;;;;10348947;28;20030;-86
2021/09/13 09:27:28;;;;;;;9.32;4.32;;;;;;;;;;10378197;28;20053;-83
2021/09/13 09:32:28;;;;;;;8.05;4.43;;;;;;;;;;10346637;28;20054;-85
2021/09/13 09:37:29;;;;;;;9.63;4.53;;;;;;;;;;10377510;28;20080;-84
2021/09/13 09:42:35;;;;;;;5.00;4.00;;;;;;;;;;10377947;28;20073;-86
2021/09/13 09:47:35;;;;;;;9.95;4.40;;;;;;;;;;10364641;28;20448;-86
2021/09/13 09:52:40;;;;;;;7.10;3.77;;;;;;;;;;10362067;28;20424;-86
2021/09/13 09:57:43;;;;;;;11.48;4.75;;;;;;;;;;10361620;28;20030;-86
2021/09/13 10:02:43;;;;;;;10.98;4.78;;;;;;;;;;10377679;28;20035;-85
2021/09/13 10:07:44;;;;;;;8.07;3.85;;;;;;;;;;10357065;28;20034;-85
2021/09/13 10:12:46;;;;;;;10.48;3.88;;;;;;;;;;10347438;28;20492;-86
2021/09/13 10:17:47;;;;;;;5.78;3.95;;;;;;;;;;10340212;28;20026;-85
2021/09/13 10:22:52;;;;;;;8.68;4.38;;;;;;;;;;10358862;28;20116;-85
2021/09/13 10:28:01;;;;;;;8.75;4.13;;;;;;;;;;10358804;28;20026;-87
2021/09/13 10:33:12;;;;;;;7.00;4.25;;;;;;;;;;10353694;28;20076;-85
2021/09/13 10:38:20;;;;;;;6.93;3.83;;;;;;;;;;10336986;28;20433;-86
2021/09/13 10:43:23;;;;;;;;;;;;;;;;;;10344227;28;20509;-86
2021/09/13 10:48:23;;;;;;;8.50;4.00;;;;;;;;;;10375751;28;20004;-87
2021/09/13 10:53:24;;;;;;;7.70;4.03;;;;;;;;;;10375382;28;20109;-87
2021/09/13 10:58:50;;;;;;;6.30;3.85;;;;;;;;;;10341991;28;20026;-86
2021/09/13 11:04:03;;;;;;;5.82;4.05;;;;;;;;;;10374471;28;20080;-86
2021/09/13 11:09:07;;;;;;;8.43;4.18;;;;;;;;;;10373992;28;20033;-87
2021/09/13 11:14:16;;;;;;;6.47;4.43;;;;;;;;;;10353065;28;20040;-86
2021/09/13 11:19:18;;;;;;;9.60;4.55;;;;;;;;;;10357024;28;20040;-86
2021/09/13 11:24:26;;;;;;;5.53;3.90;;;;;;;;;;10329553;28;20374;-81
2021/09/13 11:29:29;;;;;;;8.15;4.35;;;;;;;;;;10336669;28;20068;-82
2021/09/13 11:34:35;;;;;;;8.27;3.92;;;;;;;;;;10358274;28;20080;-86
2021/09/13 11:39:37;;;;;;;8.18;4.68;;;;;;;;;;10358036;28;20081;-85
2021/09/13 11:44:53;;;;;;;7.25;3.70;;;;;;;;;;10359792;28;20081;-86
2021/09/13 11:49:56;;;;;;;5.85;3.75;;;;;;;;;;10369940;28;20060;-89
2021/09/13 11:55:03;;;;;;;6.63;3.92;;;;;;;;;;10342742;28;20038;-88
2021/09/13 12:00:17;;;;;;;5.13;3.95;;;;;;;;;;10368116;28;20153;-87
2021/09/13 12:05:23;;;;;;;6.10;4.05;;;;;;;;;;10361064;28;20121;-87
2021/09/13 12:10:28;;;;;;;5.72;3.67;;;;;;;;;;10354880;28;20025;-87
2021/09/13 12:15:32;;;;;;;6.93;4.30;;;;;;;;;;10361563;28;20065;-89
2021/09/13 12:20:41;;;;;;;5.57;3.58;;;;;;;;;;10336981;28;20038;-89
2021/09/13 12:25:47;;;;;;;10.82;4.85;;;;;;;;;;10353205;28;20042;-89
2021/09/13 12:30:58;;;;;;;7.10;4.00;;;;;;;;;;10375022;28;20117;-89
2021/09/13 12:36:18;;;;;;;5.63;4.13;;;;;;;;;;10335971;28;20120;-88
2021/09/13 12:41:34;;;;;;;6.03;3.90;;;;;;;;;;10333412;28;20061;-84
2021/09/13 12:46:52;;;;;;;7.18;4.28;;;;;;;;;;10372248;28;20078;-89
2021/09/13 12:51:58;;;;;;;6.70;3.60;;;;;;;;;;10335992;28;20076;-93
2021/09/13 12:56:58;;;;;;;4.88;3.50;;;;;;;;;;10342742;28;20445;-87
2021/09/13 13:02:04;;;;;;;4.72;3.90;;;;;;;;;;10361440;28;20038;-85
2021/09/13 13:07:06;;;;;;;9.77;4.25;;;;;;;;;;10357706;28;20463;-86
2021/09/13 13:12:07;;;;;;;4.65;3.85;;;;;;;;;;10344959;28;20128;-86
2021/09/13 13:17:07;;;;;;;4.82;3.75;;;;;;;;;;10362792;28;20038;-93
2021/09/13 13:22:09;;;;;;;6.13;3.85;;;;;;;;;;10332117;28;20432;-94
2021/09/13 13:27:12;;;;;;;6.88;3.60;;;;;;;;;;10342213;28;20041;-92
2021/09/13 13:32:13;;;;;;;5.00;3.83;;;;;;;;;;10340060;28;20065;-94
2021/09/13 13:37:13;;;;;;;4.35;3.33;;;;;;;;;;10326850;28;20451;-94
2021/09/13 13:42:14;;;;;;;8.65;3.90;;;;;;;;;;10337877;28;20129;-91
2021/09/13 13:47:14;;;;;;;3.77;3.37;;;;;;;;;;10342308;28;20018;-92
2021/09/13 13:52:14;;;;;;;3.80;3.37;;;;;;;;;;10350559;28;20037;-93
2021/09/13 13:57:17;;;;;;;5.90;3.40;;;;;;;;;;10323068;28;20478;-86
2021/09/13 14:02:17;;;;;;;5.55;3.58;;;;;;;;;;10341929;28;20061;-86
2021/09/13 14:07:18;;;;;;;7.22;3.58;;;;;;;;;;10336143;28;20190;-89
2021/09/13 14:12:19;;;;;;;8.90;4.07;;;;;;;;;;10339738;28;20041;-88
2021/09/13 14:17:19;;;;;;;6.30;3.95;;;;;;;;;;10363080;28;20069;-89
2021/09/13 14:22:20;;;;;;;8.27;3.50;;;;;;;;;;10337715;28;20484;-88
2021/09/13 14:27:20;;;;;;;5.73;3.80;;;;;;;;;;10355660;28;20042;-85
2021/09/13 14:32:21;;;;;;;6.03;3.77;;;;;;;;;;10375291;28;20781;-84
2021/09/13 14:37:21;;;;;;;8.75;3.88;;;;;;;;;;10363666;28;20037;-84
2021/09/13 14:42:22;;;;;;;8.97;3.60;;;;;;;;;;10361692;28;20137;-84
2021/09/13 14:47:22;;;;;;;7.40;3.73;;;;;;;;;;10361394;28;20029;-84
2021/09/13 14:52:23;;;;;;;6.33;3.63;;;;;;;;;;10348738;28;20062;-85
2021/09/13 14:57:24;;;;;;;7.13;3.83;;;;;;;;;;10361639;28;20037;-82
2021/09/13 15:02:25;;;;;;;7.95;3.85;;;;;;;;;;10366265;28;20029;-83
2021/09/13 15:07:25;;;;;;;7.83;3.37;;;;;;;;;;10366359;28;20385;-83
2021/09/13 15:12:25;;;;;;;4.50;3.20;;;;;;;;;;10347464;28;20117;-83
2021/09/13 15:17:26;;;;;;;5.03;3.47;;;;;;;;;;10363660;28;20041;-83
2021/09/13 15:22:27;;;;;;;4.55;3.35;;;;;;;;;;10358903;28;20058;-84
2021/09/13 15:27:27;;;;;;;4.53;3.08;;;;;;;;;;10333081;28;20517;-81
2021/09/13 15:32:28;;;;;;;5.28;3.38;;;;;;;;;;10333159;28;20121;-84
2021/09/13 15:37:28;;;;;;;6.13;3.20;;;;;;;;;;10360093;28;20447;-82
2021/09/13 15:42:29;;;;;;;5.20;3.15;;;;;;;;;;10333872;28;20054;-82
2021/09/13 15:47:29;;;;;;;5.70;3.70;;;;;;;;;;10354827;28;20077;-81
2021/09/13 15:52:29;;;;;;;6.78;3.22;;;;;;;;;;10365741;28;20025;-81
2021/09/13 15:57:30;;;;;;;6.10;3.83;;;;;;;;;;10358490;28;20035;-81
2021/09/13 16:02:30;;;;;;;4.65;3.30;;;;;;;;;;10337114;28;20058;-82
2021/09/13 16:07:31;;;;;;;4.43;2.95;;;;;;;;;;10354441;28;20034;-82
2021/09/13 16:12:32;;;;;;;4.05;2.75;;;;;;;;;;10344500;28;20497;-83
2021/09/13 16:17:33;;;;;;;3.03;2.72;;;;;;;;;;10349911;28;20057;-82
2021/09/13 16:22:34;;;;;;;8.70;3.17;;;;;;;;;;10342250;28;20041;-82
2021/09/13 16:27:34;;;;;;;4.60;3.10;;;;;;;;;;10317414;28;20100;-83
2021/09/13 16:32:35;;;;;;;4.15;2.65;;;;;;;;;;10340643;28;20169;-82
2021/09/13 16:37:35;;;;;;;4.10;3.20;;;;;;;;;;10352601;28;20030;-83
2021/09/13 16:42:36;;;;;;;5.32;2.90;;;;;;;;;;10339513;28;20050;-83
2021/09/13 16:47:36;;;;;;;3.63;2.93;;;;;;;;;;10352868;28;20121;-82
2021/09/13 16:52:36;;;;;;;4.53;3.27;;;;;;;;;;10364295;28;20795;-82
2021/09/13 16:57:37;;;;;;;3.37;2.70;;;;;;;;;;10341322;28;20113;-83
2021/09/13 17:02:37;;;;;;;3.20;2.90;;;;;;;;;;10338722;28;20026;-82
2021/09/13 17:07:38;;;;;;;4.80;2.87;;;;;;;;;;10352373;28;20074;-85
2021/09/13 17:12:38;;;;;;;2.95;2.60;;;;;;;;;;10339388;28;20470;-85
2021/09/13 17:17:39;;;;;;;3.07;2.70;;;;;;;;;;10350403;28;20054;-85
2021/09/13 17:22:39;;;;;;;3.53;2.60;;;;;;;;;;10337302;28;20034;-86
2021/09/13 17:27:40;;;;;;;2.92;2.50;;;;;;;;;;10337202;28;20556;-85
2021/09/13 17:32:40;;;;;;;4.25;2.80;;;;;;;;;;10353289;28;20030;-85
2021/09/13 17:37:41;;;;;;;4.97;3.13;;;;;;;;;;10345765;28;20125;-85
2021/09/13 17:42:41;;;;;;;3.53;2.70;;;;;;;;;;10373112;28;20100;-88
2021/09/13 17:47:41;;;;;;;3.40;3.07;;;;;;;;;;10364290;28;20986;-88
2021/09/13 17:52:42;;;;;;;2.87;2.33;;;;;;;;;;10358785;28;20040;-88
2021/09/13 17:57:46;;;;;;;4.85;2.58;;;;;;;;;;10340213;28;20152;-89
2021/09/13 18:02:46;;;;;;;4.40;3.00;;;;;;;;;;10341890;28;20112;-88
2021/09/13 18:07:46;;;;;;;4.73;3.00;;;;;;;;;;10354643;28;20571;-87
2021/09/13 18:12:47;;;;;;;8.63;3.17;;;;;;;;;;10341173;28;20087;-88
2021/09/13 18:17:48;;;;;;;7.23;3.50;;;;;;;;;;10353379;28;20038;-87
2021/09/13 18:22:49;;;;;;;6.85;3.53;;;;;;;;;;10348252;28;20974;-87
2021/09/13 18:27:49;;;;;;;8.05;3.60;;;;;;;;;;10359941;28;20030;-87
2021/09/13 18:32:50;;;;;;;5.00;3.58;;;;;;;;;;10344235;28;20034;-84
2021/09/13 18:37:50;;;;;;;9.17;4.27;;;;;;;;;;10361424;28;20038;-84
2021/09/13 18:42:50;;;;;;;8.73;3.90;;;;;;;;;;10338761;28;20042;-86
2021/09/13 18:47:51;;;;;;;6.40;3.90;;;;;;;;;;10339847;28;20038;-87
2021/09/13 18:52:51;;;;;;;17.53;4.13;;;;;;;;;;10342076;28;20083;-85
2021/09/13 18:57:52;;;;;;;11.20;4.33;;;;;;;;;;10370737;28;20598;-84
2021/09/13 19:02:52;;;;;;;14.23;4.28;;;;;;;;;;10355988;28;20033;-84
2021/09/13 19:07:53;;;;;;;14.20;4.50;;;;;;;;;;10355937;28;20034;-84
2021/09/13 19:12:53;;;;;;;7.72;3.50;;;;;;;;;;10341344;28;20025;-85
2021/09/13 19:17:54;;;;;;;8.77;4.47;;;;;;;;;;10349764;28;20110;-85
2021/09/13 19:22:54;;;;;;;13.37;5.13;;;;;;;;;;10374593;28;20030;-85
2021/09/13 19:28:04;;;;;;;16.07;5.97;;;;;;;;;;10372982;28;20038;-84
2021/09/13 19:33:04;;;;;;;14.07;5.45;;;;;;;;;;10349761;28;20871;-85
2021/09/13 19:38:05;;;;;;;7.63;4.95;;;;;;;;;;10337776;28;20026;-85
2021/09/13 19:43:05;;;;;;;9.80;5.27;;;;;;;;;;10389653;23;20053;-80
2021/09/13 19:48:06;;;;;;;8.53;5.27;;;;;;;;;;10352090;28;20553;-80
2021/09/13 19:53:06;;;;;;;8.90;5.85;;;;;;;;;;10380290;28;20042;-80
2021/09/13 19:58:06;;;;;;;11.00;5.87;;;;;;;;;;10382881;28;20042;-80
2021/09/13 20:03:07;;;;;;;18.73;5.90;;;;;;;;;;10370636;28;20045;-81
2021/09/13 20:08:07;;;;;;;21.43;7.27;;;;;;;;;;10379410;28;20041;-83
2021/09/13 20:13:08;;;;;;;15.27;6.93;;;;;;;;;;10380929;28;20112;-81
2021/09/13 20:18:09;;;;;;;11.13;5.87;;;;;;;;;;10379672;28;20041;-81
2021/09/13 20:23:10;;;;;;;9.88;5.30;;;;;;;;;;10381591;28;20463;-81
2021/09/13 20:28:11;;;;;;;12.80;5.60;;;;;;;;;;10385017;28;20034;-80
2021/09/13 20:33:14;;;;;;;9.30;5.25;;;;;;;;;;10395130;28;20112;-80
2021/09/13 20:38:14;;;;;;;10.88;5.90;;;;;;;;;;10382278;28;20121;-81
2021/09/13 20:43:15;;;;;;;11.87;5.90;;;;;;;;;;10388281;28;20427;-81
2021/09/13 20:48:15;;;;;;;11.40;5.53;;;;;;;;;;10387139;28;20035;-82
2021/09/13 20:53:15;;;;;;;11.73;5.50;;;;;;;;;;10384250;28;20057;-80
2021/09/13 20:58:16;;;;;;;9.20;5.43;;;;;;;;;;10384041;28;20030;-80
2021/09/13 21:03:17;;;;;;;11.40;5.30;;;;;;;;;;10366313;28;20065;-80
2021/09/13 21:08:17;;;;;;;12.00;5.70;;;;;;;;;;10358833;28;20045;-81
2021/09/13 21:13:18;;;;;;;8.43;5.28;;;;;;;;;;10368265;28;20444;-81
2021/09/13 21:18:18;;;;;;;9.57;5.40;;;;;;;;;;10382009;28;20029;-88
2021/09/13 21:23:19;;;;;;;7.90;5.17;;;;;;;;;;10363874;28;20540;-86
2021/09/13 21:28:19;;;;;;;7.77;5.10;;;;;;;;;;10355571;28;20026;-87
2021/09/13 21:33:19;;;;;;;12.10;5.50;;;;;;;;;;10375108;28;20455;-87
2021/09/13 21:38:20;;;;;;;12.27;5.60;;;;;;;;;;10377600;28;20514;-86
2021/09/13 21:43:20;;;;;;;8.70;5.03;;;;;;;;;;10367431;28;20437;-86
2021/09/13 21:48:20;;;;;;;16.10;5.70;;;;;;;;;;10373000;28;20453;-87
2021/09/13 21:53:21;;;;;;;11.53;4.97;;;;;;;;;;10375215;28;20026;-88
2021/09/13 21:58:21;;;;;;;7.13;5.13;;;;;;;;;;10348592;28;20037;-89
2021/09/13 22:03:22;;;;;;;8.33;4.80;;;;;;;;;;10365738;28;20983;-86
2021/09/13 22:08:22;;;;;;;12.37;5.67;;;;;;;;;;10388618;28;20461;-86
2021/09/13 22:13:22;;;;;;;8.33;5.57;;;;;;;;;;10383682;28;20084;-86
2021/09/13 22:18:23;;;;;;;13.17;5.30;;;;;;;;;;10360748;28;20076;-92
2021/09/13 22:23:24;;;;;;;9.17;5.30;;;;;;;;;;10361951;28;20038;-88
2021/09/13 22:28:24;;;;;;;9.52;5.18;;;;;;;;;;10377072;28;20045;-87
2021/09/13 22:33:25;;;;;;;7.50;4.80;;;;;;;;;;10352983;28;20034;-88
2021/09/13 22:38:25;;;;;;;8.60;4.60;;;;;;;;;;10381639;28;20034;-88
2021/09/13 22:43:26;;;;;;;9.27;5.10;;;;;;;;;;10364805;28;20117;-88
2021/09/13 22:48:26;;;;;;;10.20;5.30;;;;;;;;;;10362728;28;20491;-86
2021/09/13 22:53:26;;;;;;;13.47;5.10;;;;;;;;;;10386710;28;20065;-88
2021/09/13 22:58:27;;;;;;;15.03;4.97;;;;;;;;;;10387619;28;20061;-88
2021/09/13 23:03:31;;;;;;;10.07;4.50;;;;;;;;;;10359630;28;20030;-89
2021/09/13 23:08:31;;;;;;;10.82;4.68;;;;;;;;;;10346981;28;20474;-90
2021/09/13 23:13:31;;;;;;;7.63;4.70;;;;;;;;;;10379536;28;20088;-90
2021/09/13 23:18:32;;;;;;;11.33;4.53;;;;;;;;;;10370823;28;20031;-88
2021/09/13 23:23:32;;;;;;;8.20;4.60;;;;;;;;;;10370543;28;20037;-89
2021/09/13 23:28:33;;;;;;;9.63;4.83;;;;;;;;;;10368776;28;20030;-87
2021/09/13 23:33:33;;;;;;;21.13;5.20;;;;;;;;;;10371897;28;20768;-89
2021/09/13 23:38:33;;;;;;;20.30;4.90;;;;;;;;;;10362881;28;20041;-89
2021/09/13 23:43:34;;;;;;;10.77;4.47;;;;;;;;;;10366282;28;20049;-89
2021/09/13 23:48:34;;;;;;;4.93;4.00;;;;;;;;;;10383296;28;20065;-88
2021/09/13 23:53:34;;;;;;;7.93;4.73;;;;;;;;;;10386622;28;20030;-88
2021/09/13 23:58:35;;;;;;;14.03;4.67;;;;;;;;;;10384877;28;20032;-88
